Mc Leod, Montana
Current Conditions -  °F | °C
As of 11:53 PM on Friday 28 Nov 2014 (Local Time) from KLVM Reporting Station
Few Clouds Few Clouds  
Wind Chill: 52°   Ceiling: Unl
Heat Index: 52°   Visibility: 10mi
Dew Point: 15°   Wind: 37mph
Humidity: 23%   Direction: 230°SW
Pressure: 29.36"   Gusts: 46mph
Location:  45.6625°N, 110.109°W
Report Text: KLVM 290653Z AUTO 23032G40KT 10SM FEW110 11/M09 A2936 RMK AO2 PK WND 22045/0627 SLP918 T01111094 401330106
Loading
Personal Weather Stations






























Interactive Weather Map New forecast layout! Learn more

10-Day Weather Forecast

Advertisements
Track Severe Weather on mobile